sensor_id;sensor_type;location;lat;lon;timestamp;pressure;altitude;pressure_sealevel;temperature;humidity
30302;BME280;17111;52.130;5.028;2023-07-22T00:01:50;101485.03;;;23.94;44.71
30302;BME280;17111;52.130;5.028;2023-07-22T00:04:17;101478.78;;;23.93;44.46
30302;BME280;17111;52.130;5.028;2023-07-22T00:06:43;101480.81;;;23.91;44.50
30302;BME280;17111;52.130;5.028;2023-07-22T00:09:10;101481.00;;;23.89;44.93
30302;BME280;17111;52.130;5.028;2023-07-22T00:11:36;101478.47;;;23.88;44.66
30302;BME280;17111;52.130;5.028;2023-07-22T00:14:05;101476.75;;;23.87;44.39
30302;BME280;17111;52.130;5.028;2023-07-22T00:16:32;101473.22;;;23.86;44.88
30302;BME280;17111;52.130;5.028;2023-07-22T00:18:59;101469.00;;;23.84;45.16
30302;BME280;17111;52.130;5.028;2023-07-22T00:21:26;101462.94;;;23.82;45.22
30302;BME280;17111;52.130;5.028;2023-07-22T00:23:53;101459.53;;;23.80;44.56
30302;BME280;17111;52.130;5.028;2023-07-22T00:26:20;101456.81;;;23.80;44.84
30302;BME280;17111;52.130;5.028;2023-07-22T00:28:47;101460.56;;;23.79;45.26
30302;BME280;17111;52.130;5.028;2023-07-22T00:31:13;101462.63;;;23.77;44.63
30302;BME280;17111;52.130;5.028;2023-07-22T00:33:40;101460.06;;;23.75;44.72
30302;BME280;17111;52.130;5.028;2023-07-22T00:36:06;101456.53;;;23.75;44.47
30302;BME280;17111;52.130;5.028;2023-07-22T00:38:33;101455.88;;;23.73;44.89
30302;BME280;17111;52.130;5.028;2023-07-22T00:41:00;101457.56;;;23.74;44.78
30302;BME280;17111;52.130;5.028;2023-07-22T00:43:26;101464.16;;;23.71;45.22
30302;BME280;17111;52.130;5.028;2023-07-22T00:45:53;101466.03;;;23.71;44.52
30302;BME280;17111;52.130;5.028;2023-07-22T00:48:20;101454.53;;;23.69;45.03
30302;BME280;17111;52.130;5.028;2023-07-22T00:50:47;101457.25;;;23.69;45.31
30302;BME280;17111;52.130;5.028;2023-07-22T00:53:14;101453.84;;;23.67;44.71
30302;BME280;17111;52.130;5.028;2023-07-22T00:55:40;101453.19;;;23.64;45.21
30302;BME280;17111;52.130;5.028;2023-07-22T00:58:07;101451.31;;;23.65;44.87
30302;BME280;17111;52.130;5.028;2023-07-22T01:00:34;101451.47;;;23.63;45.08
30302;BME280;17111;52.130;5.028;2023-07-22T01:03:01;101441.66;;;23.62;44.98
30302;BME280;17111;52.130;5.028;2023-07-22T01:05:28;101435.59;;;23.60;45.07
30302;BME280;17111;52.130;5.028;2023-07-22T01:07:54;101436.59;;;23.59;45.11
30302;BME280;17111;52.130;5.028;2023-07-22T01:10:22;101439.31;;;23.59;44.96
30302;BME280;17111;52.130;5.028;2023-07-22T01:12:48;101438.47;;;23.59;44.87
30302;BME280;17111;52.130;5.028;2023-07-22T01:15:15;101433.44;;;23.56;45.10
30302;BME280;17111;52.130;5.028;2023-07-22T01:17:42;101430.72;;;23.56;45.35
30302;BME280;17111;52.130;5.028;2023-07-22T01:20:09;101437.13;;;23.55;44.86
30302;BME280;17111;52.130;5.028;2023-07-22T01:22:36;101430.22;;;23.52;45.48
30302;BME280;17111;52.130;5.028;2023-07-22T01:25:04;101426.69;;;23.52;45.00
30302;BME280;17111;52.130;5.028;2023-07-22T01:27:31;101433.94;;;23.51;45.35
30302;BME280;17111;52.130;5.028;2023-07-22T01:29:58;101432.25;;;23.50;45.00
30302;BME280;17111;52.130;5.028;2023-07-22T01:32:24;101432.44;;;23.49;45.11
30302;BME280;17111;52.130;5.028;2023-07-22T01:34:51;101425.31;;;23.48;44.78
30302;BME280;17111;52.130;5.028;2023-07-22T01:37:17;101428.22;;;23.46;45.10
30302;BME280;17111;52.130;5.028;2023-07-22T01:39:44;101426.53;;;23.45;45.21
30302;BME280;17111;52.130;5.028;2023-07-22T01:42:10;101422.16;;;23.44;45.41
30302;BME280;17111;52.130;5.028;2023-07-22T01:44:39;101430.25;;;23.44;45.37
30302;BME280;17111;52.130;5.028;2023-07-22T01:47:06;101424.16;;;23.42;45.61
30302;BME280;17111;52.130;5.028;2023-07-22T01:49:33;101417.91;;;23.42;45.67
30302;BME280;17111;52.130;5.028;2023-07-22T01:52:01;101425.19;;;23.41;45.16
30302;BME280;17111;52.130;5.028;2023-07-22T01:54:28;101424.34;;;23.40;45.27
30302;BME280;17111;52.130;5.028;2023-07-22T01:56:54;101417.22;;;23.39;45.11
30302;BME280;17111;52.130;5.028;2023-07-22T01:59:21;101414.53;;;23.39;45.11
30302;BME280;17111;52.130;5.028;2023-07-22T02:01:48;101415.56;;;23.38;45.12
30302;BME280;17111;52.130;5.028;2023-07-22T02:04:15;101415.75;;;23.37;45.16
30302;BME280;17111;52.130;5.028;2023-07-22T02:06:41;101418.44;;;23.37;45.31
30302;BME280;17111;52.130;5.028;2023-07-22T02:09:08;101413.19;;;23.35;45.34
30302;BME280;17111;52.130;5.028;2023-07-22T02:11:35;101417.75;;;23.35;45.32
30302;BME280;17111;52.130;5.028;2023-07-22T02:14:02;101414.22;;;23.34;45.59
30302;BME280;17111;52.130;5.028;2023-07-22T02:16:34;101413.38;;;23.34;45.67
30302;BME280;17111;52.130;5.028;2023-07-22T02:19:02;101416.09;;;23.34;45.74
30302;BME280;17111;52.130;5.028;2023-07-22T02:21:29;101404.63;;;23.32;45.68
30302;BME280;17111;52.130;5.028;2023-07-22T02:23:56;101406.44;;;23.31;45.47
30302;BME280;17111;52.130;5.028;2023-07-22T02:26:22;101402.06;;;23.30;45.20
30302;BME280;17111;52.130;5.028;2023-07-22T02:28:49;101401.22;;;23.30;45.37
30302;BME280;17111;52.130;5.028;2023-07-22T02:31:15;101391.44;;;23.29;45.65
30302;BME280;17111;52.130;5.028;2023-07-22T02:33:42;101387.88;;;23.28;45.54
30302;BME280;17111;52.130;5.028;2023-07-22T02:36:09;101392.47;;;23.28;45.44
30302;BME280;17111;52.130;5.028;2023-07-22T02:38:35;101387.03;;;23.28;45.69
30302;BME280;17111;52.130;5.028;2023-07-22T02:41:03;101380.94;;;23.26;45.78
30302;BME280;17111;52.130;5.028;2023-07-22T02:43:32;101384.69;;;23.25;45.37
30302;BME280;17111;52.130;5.028;2023-07-22T02:46:03;101378.44;;;23.24;45.70
30302;BME280;17111;52.130;5.028;2023-07-22T02:48:31;101388.22;;;23.25;45.80
30302;BME280;17111;52.130;5.028;2023-07-22T02:51:06;101386.69;;;23.23;45.48
30302;BME280;17111;52.130;5.028;2023-07-22T02:53:34;101391.28;;;23.22;45.38
30302;BME280;17111;52.130;5.028;2023-07-22T02:56:04;101391.28;;;23.22;45.54
30302;BME280;17111;52.130;5.028;2023-07-22T02:58:31;101390.44;;;23.22;45.53
30302;BME280;17111;52.130;5.028;2023-07-22T03:00:57;101391.28;;;23.22;45.90
30302;BME280;17111;52.130;5.028;2023-07-22T03:03:24;101390.63;;;23.20;45.79
30302;BME280;17111;52.130;5.028;2023-07-22T03:05:51;101385.22;;;23.20;45.42
30302;BME280;17111;52.130;5.028;2023-07-22T03:08:18;101384.38;;;23.20;46.07
30302;BME280;17111;52.130;5.028;2023-07-22T03:10:45;101383.50;;;23.19;45.29
30302;BME280;17111;52.130;5.028;2023-07-22T03:13:17;101390.78;;;23.19;45.70
30302;BME280;17111;52.130;5.028;2023-07-22T03:15:44;101385.56;;;23.17;45.53
30302;BME280;17111;52.130;5.028;2023-07-22T03:18:11;101388.41;;;23.15;45.95
30302;BME280;17111;52.130;5.028;2023-07-22T03:20:38;101392.00;;;23.16;45.99
30302;BME280;17111;52.130;5.028;2023-07-22T03:23:05;101388.41;;;23.15;45.60
30302;BME280;17111;52.130;5.028;2023-07-22T03:25:33;101397.56;;;23.14;45.50
30302;BME280;17111;52.130;5.028;2023-07-22T03:28:03;101392.97;;;23.15;45.83
30302;BME280;17111;52.130;5.028;2023-07-22T03:30:30;101399.41;;;23.14;45.57
30302;BME280;17111;52.130;5.028;2023-07-22T03:32:57;101389.63;;;23.13;45.62
30302;BME280;17111;52.130;5.028;2023-07-22T03:35:25;101386.09;;;23.12;45.88
30302;BME280;17111;52.130;5.028;2023-07-22T03:37:51;101394.19;;;23.12;45.96
30302;BME280;17111;52.130;5.028;2023-07-22T03:40:18;101397.06;;;23.11;45.74
30302;BME280;17111;52.130;5.028;2023-07-22T03:42:54;101401.63;;;23.10;46.01
30302;BME280;17111;52.130;5.028;2023-07-22T03:45:21;101398.91;;;23.10;45.85
30302;BME280;17111;52.130;5.028;2023-07-22T03:47:59;101412.63;;;23.09;46.22
30302;BME280;17111;52.130;5.028;2023-07-22T03:50:26;101408.06;;;23.09;46.12
30302;BME280;17111;52.130;5.028;2023-07-22T03:52:53;101400.13;;;23.08;45.66
30302;BME280;17111;52.130;5.028;2023-07-22T03:55:20;101399.25;;;23.07;46.24
30302;BME280;17111;52.130;5.028;2023-07-22T03:57:46;101409.06;;;23.08;45.71
30302;BME280;17111;52.130;5.028;2023-07-22T04:00:13;101400.28;;;23.06;45.73
30302;BME280;17111;52.130;5.028;2023-07-22T04:02:40;101397.44;;;23.08;46.03
30302;BME280;17111;52.130;5.028;2023-07-22T04:05:07;101413.81;;;23.06;45.97
30302;BME280;17111;52.130;5.028;2023-07-22T04:07:34;101407.56;;;23.06;46.17
30302;BME280;17111;52.130;5.028;2023-07-22T04:10:01;101411.28;;;23.05;46.15
30302;BME280;17111;52.130;5.028;2023-07-22T04:12:29;101418.38;;;23.06;45.96
30302;BME280;17111;52.130;5.028;2023-07-22T04:14:55;101413.16;;;23.04;45.95
30302;BME280;17111;52.130;5.028;2023-07-22T04:17:22;101417.72;;;23.04;45.86
30302;BME280;17111;52.130;5.028;2023-07-22T04:19:51;101403.31;;;23.03;46.02
30302;BME280;17111;52.130;5.028;2023-07-22T04:22:20;101404.19;;;23.04;45.80
30302;BME280;17111;52.130;5.028;2023-07-22T04:24:47;101402.66;;;23.01;45.57
30302;BME280;17111;52.130;5.028;2023-07-22T04:27:17;101400.81;;;23.02;45.96
30302;BME280;17111;52.130;5.028;2023-07-22T04:29:43;101407.06;;;23.02;46.26
30302;BME280;17111;52.130;5.028;2023-07-22T04:32:10;101399.97;;;23.01;46.48
30302;BME280;17111;52.130;5.028;2023-07-22T04:34:36;101402.66;;;23.01;46.18
30302;BME280;17111;52.130;5.028;2023-07-22T04:37:03;101405.38;;;23.01;46.21
30302;BME280;17111;52.130;5.028;2023-07-22T04:39:30;101406.22;;;23.02;46.15
30302;BME280;17111;52.130;5.028;2023-07-22T04:41:56;101407.25;;;23.01;46.08
30302;BME280;17111;52.130;5.028;2023-07-22T04:44:23;101405.38;;;23.01;46.18
30302;BME280;17111;52.130;5.028;2023-07-22T04:46:51;101400.81;;;23.02;46.33
30302;BME280;17111;52.130;5.028;2023-07-22T04:49:17;101404.34;;;23.02;46.01
30302;BME280;17111;52.130;5.028;2023-07-22T04:51:45;101397.25;;;23.01;45.79
30302;BME280;17111;52.130;5.028;2023-07-22T04:54:12;101396.44;;;23.01;46.04
30302;BME280;17111;52.130;5.028;2023-07-22T04:56:39;101401.84;;;23.01;46.21
30302;BME280;17111;52.130;5.028;2023-07-22T04:59:05;101399.13;;;23.01;45.88
30302;BME280;17111;52.130;5.028;2023-07-22T05:01:32;101398.28;;;23.00;45.91
30302;BME280;17111;52.130;5.028;2023-07-22T05:03:59;101401.00;;;23.00;46.28
30302;BME280;17111;52.130;5.028;2023-07-22T05:06:27;101390.19;;;23.00;45.94
30302;BME280;17111;52.130;5.028;2023-07-22T05:08:54;101396.44;;;23.01;46.07
30302;BME280;17111;52.130;5.028;2023-07-22T05:11:21;101390.19;;;23.00;46.12
30302;BME280;17111;52.130;5.028;2023-07-22T05:13:49;101391.84;;;23.01;45.98
30302;BME280;17111;52.130;5.028;2023-07-22T05:16:17;101397.25;;;23.01;46.29
30302;BME280;17111;52.130;5.028;2023-07-22T05:18:43;101393.72;;;23.01;46.03
30302;BME280;17111;52.130;5.028;2023-07-22T05:21:10;101398.28;;;23.00;45.92
30302;BME280;17111;52.130;5.028;2023-07-22T05:23:37;101399.13;;;23.01;46.22
30302;BME280;17111;52.130;5.028;2023-07-22T05:26:03;101402.84;;;23.00;46.29
30302;BME280;17111;52.130;5.028;2023-07-22T05:28:30;101404.53;;;23.01;46.23
30302;BME280;17111;52.130;5.028;2023-07-22T05:30:56;101397.44;;;23.00;46.40
30302;BME280;17111;52.130;5.028;2023-07-22T05:33:23;101399.13;;;23.01;46.58
30302;BME280;17111;52.130;5.028;2023-07-22T05:35:50;101399.13;;;23.01;46.50
30302;BME280;17111;52.130;5.028;2023-07-22T05:38:17;101401.84;;;23.01;46.39
30302;BME280;17111;52.130;5.028;2023-07-22T05:40:43;101395.59;;;23.00;46.46
30302;BME280;17111;52.130;5.028;2023-07-22T05:43:10;101402.66;;;23.01;46.54
30302;BME280;17111;52.130;5.028;2023-07-22T05:45:37;101401.00;;;23.00;46.85
30302;BME280;17111;52.130;5.028;2023-07-22T05:48:04;101392.88;;;23.00;46.37
30302;BME280;17111;52.130;5.028;2023-07-22T05:50:31;101395.41;;;23.02;46.95
30302;BME280;17111;52.130;5.028;2023-07-22T05:52:57;101391.00;;;23.01;46.96
30302;BME280;17111;52.130;5.028;2023-07-22T05:55:24;101391.00;;;23.01;47.32
30302;BME280;17111;52.130;5.028;2023-07-22T05:57:51;101392.69;;;23.02;46.99
30302;BME280;17111;52.130;5.028;2023-07-22T06:00:17;101389.16;;;23.01;47.29
30302;BME280;17111;52.130;5.028;2023-07-22T06:02:45;101397.25;;;23.01;47.50
30302;BME280;17111;52.130;5.028;2023-07-22T06:05:11;101388.97;;;23.03;47.41
30302;BME280;17111;52.130;5.028;2023-07-22T06:07:38;101390.84;;;23.02;47.70
30302;BME280;17111;52.130;5.028;2023-07-22T06:10:05;101393.53;;;23.02;47.51
30302;BME280;17111;52.130;5.028;2023-07-22T06:12:32;101387.97;;;23.04;47.86
30302;BME280;17111;52.130;5.028;2023-07-22T06:14:59;101392.50;;;23.03;47.82
30302;BME280;17111;52.130;5.028;2023-07-22T06:17:26;101395.22;;;23.03;47.86
30302;BME280;17111;52.130;5.028;2023-07-22T06:19:52;101386.09;;;23.04;48.02
30302;BME280;17111;52.130;5.028;2023-07-22T06:22:19;101386.94;;;23.05;47.96
30302;BME280;17111;52.130;5.028;2023-07-22T06:24:46;101387.59;;;23.07;48.29
30302;BME280;17111;52.130;5.028;2023-07-22T06:27:12;101391.16;;;23.07;48.48
30302;BME280;17111;52.130;5.028;2023-07-22T06:29:39;101396.56;;;23.07;48.62
30302;BME280;17111;52.130;5.028;2023-07-22T06:32:06;101376.63;;;23.08;48.69
30302;BME280;17111;52.130;5.028;2023-07-22T06:34:33;101377.47;;;23.09;48.22
30302;BME280;17111;52.130;5.028;2023-07-22T06:36:59;101372.91;;;23.09;49.04
30302;BME280;17111;52.130;5.028;2023-07-22T06:39:26;101376.44;;;23.10;48.74
30302;BME280;17111;52.130;5.028;2023-07-22T06:41:52;101380.00;;;23.10;48.93
30302;BME280;17111;52.130;5.028;2023-07-22T06:44:19;101376.25;;;23.11;48.87
30302;BME280;17111;52.130;5.028;2023-07-22T06:46:45;101372.56;;;23.12;49.23
30302;BME280;17111;52.130;5.028;2023-07-22T06:49:12;101375.25;;;23.12;48.95
30302;BME280;17111;52.130;5.028;2023-07-22T06:51:39;101373.41;;;23.13;48.88
30302;BME280;17111;52.130;5.028;2023-07-22T06:54:06;101376.94;;;23.13;49.33
30302;BME280;17111;52.130;5.028;2023-07-22T06:56:32;101361.56;;;23.14;49.32
30302;BME280;17111;52.130;5.028;2023-07-22T06:58:59;101365.94;;;23.15;49.38
30302;BME280;17111;52.130;5.028;2023-07-22T07:01:25;101373.06;;;23.16;49.28
30302;BME280;17111;52.130;5.028;2023-07-22T07:03:52;101368.50;;;23.17;49.60
30302;BME280;17111;52.130;5.028;2023-07-22T07:06:19;101370.16;;;23.18;49.67
30302;BME280;17111;52.130;5.028;2023-07-22T07:08:45;101371.84;;;23.19;49.32
30302;BME280;17111;52.130;5.028;2023-07-22T07:11:14;101371.84;;;23.19;50.08
30302;BME280;17111;52.130;5.028;2023-07-22T07:13:41;101377.94;;;23.21;49.95
30302;BME280;17111;52.130;5.028;2023-07-22T07:16:28;101374.75;;;23.17;50.59
30302;BME280;17111;52.130;5.028;2023-07-22T07:18:56;101381.66;;;23.20;50.61
30302;BME280;17111;52.130;5.028;2023-07-22T07:21:23;101379.13;;;23.18;50.62
30302;BME280;17111;52.130;5.028;2023-07-22T07:23:51;101377.44;;;23.17;51.04
30302;BME280;17111;52.130;5.028;2023-07-22T07:26:19;101375.91;;;23.14;51.12
30302;BME280;17111;52.130;5.028;2023-07-22T07:28:50;101375.25;;;23.12;50.87
30302;BME280;17111;52.130;5.028;2023-07-22T07:31:17;101377.97;;;23.12;51.08
30302;BME280;17111;52.130;5.028;2023-07-22T07:33:44;101370.84;;;23.11;51.64
30302;BME280;17111;52.130;5.028;2023-07-22T07:36:11;101371.88;;;23.10;51.44
30302;BME280;17111;52.130;5.028;2023-07-22T07:38:37;101367.31;;;23.11;51.15
30302;BME280;17111;52.130;5.028;2023-07-22T07:41:06;101375.41;;;23.11;51.79
30302;BME280;17111;52.130;5.028;2023-07-22T07:43:38;101382.88;;;23.09;51.73
30302;BME280;17111;52.130;5.028;2023-07-22T07:46:13;101375.09;;;23.06;51.79
30302;BME280;17111;52.130;5.028;2023-07-22T07:48:40;101378.00;;;23.04;52.26
30302;BME280;17111;52.130;5.028;2023-07-22T07:51:07;101375.28;;;23.04;52.16
30302;BME280;17111;52.130;5.028;2023-07-22T07:53:33;101367.19;;;23.04;52.04
30302;BME280;17111;52.130;5.028;2023-07-22T07:56:00;101371.75;;;23.04;51.87
30302;BME280;17111;52.130;5.028;2023-07-22T07:58:26;101369.88;;;23.04;52.02
30302;BME280;17111;52.130;5.028;2023-07-22T08:00:53;101366.34;;;23.04;52.46
30302;BME280;17111;52.130;5.028;2023-07-22T08:03:20;101369.03;;;23.04;52.14
30302;BME280;17111;52.130;5.028;2023-07-22T08:05:47;101367.00;;;23.06;51.93
30302;BME280;17111;52.130;5.028;2023-07-22T08:08:13;101362.78;;;23.03;52.29
30302;BME280;17111;52.130;5.028;2023-07-22T08:10:40;101376.47;;;23.02;52.37
30302;BME280;17111;52.130;5.028;2023-07-22T08:13:08;101370.22;;;23.01;52.42
30302;BME280;17111;52.130;5.028;2023-07-22T08:15:36;101365.84;;;23.00;52.49
30302;BME280;17111;52.130;5.028;2023-07-22T08:18:03;101361.44;;;22.99;52.44
30302;BME280;17111;52.130;5.028;2023-07-22T08:20:30;101369.53;;;22.99;52.29
30302;BME280;17111;52.130;5.028;2023-07-22T08:22:57;101367.03;;;22.98;52.32
30302;BME280;17111;52.130;5.028;2023-07-22T08:25:23;101369.91;;;22.96;52.38
30302;BME280;17111;52.130;5.028;2023-07-22T08:27:50;101370.91;;;22.95;52.31
30302;BME280;17111;52.130;5.028;2023-07-22T08:30:16;101365.50;;;22.95;52.32
30302;BME280;17111;52.130;5.028;2023-07-22T08:32:43;101368.38;;;22.94;52.47
30302;BME280;17111;52.130;5.028;2023-07-22T08:35:10;101370.25;;;22.93;52.07
30302;BME280;17111;52.130;5.028;2023-07-22T08:37:36;101364.66;;;22.95;52.55
30302;BME280;17111;52.130;5.028;2023-07-22T08:40:03;101367.22;;;22.96;52.39
30302;BME280;17111;52.130;5.028;2023-07-22T08:42:32;101359.09;;;22.96;52.62
30302;BME280;17111;52.130;5.028;2023-07-22T08:45:01;101357.06;;;22.98;52.26
30302;BME280;17111;52.130;5.028;2023-07-22T08:47:29;101358.72;;;22.99;52.03
30302;BME280;17111;52.130;5.028;2023-07-22T08:49:58;101360.59;;;22.99;51.87
30302;BME280;17111;52.130;5.028;2023-07-22T08:52:27;101361.44;;;22.99;51.70
30302;BME280;17111;52.130;5.028;2023-07-22T08:54:54;101355.03;;;23.00;51.51
30302;BME280;17111;52.130;5.028;2023-07-22T08:57:22;101358.72;;;22.99;51.61
30302;BME280;17111;52.130;5.028;2023-07-22T08:59:48;101365.16;;;22.98;51.24
30302;BME280;17111;52.130;5.028;2023-07-22T09:02:16;101353.50;;;22.98;51.45
30302;BME280;17111;52.130;5.028;2023-07-22T09:04:43;101358.06;;;22.97;51.71
30302;BME280;17111;52.130;5.028;2023-07-22T09:07:11;101364.31;;;22.98;51.84
30302;BME280;17111;52.130;5.028;2023-07-22T09:09:39;101361.81;;;22.96;51.25
30302;BME280;17111;52.130;5.028;2023-07-22T09:12:06;101357.22;;;22.97;51.73
30302;BME280;17111;52.130;5.028;2023-07-22T09:14:33;101360.78;;;22.97;51.43
30302;BME280;17111;52.130;5.028;2023-07-22T09:17:03;101354.34;;;22.98;51.21
30302;BME280;17111;52.130;5.028;2023-07-22T09:19:30;101364.13;;;22.99;50.85
30302;BME280;17111;52.130;5.028;2023-07-22T09:21:57;101360.59;;;22.99;50.67
30302;BME280;17111;52.130;5.028;2023-07-22T09:24:26;101354.53;;;22.97;50.49
30302;BME280;17111;52.130;5.028;2023-07-22T09:26:54;101355.38;;;22.97;50.50
30302;BME280;17111;52.130;5.028;2023-07-22T09:29:36;101361.81;;;22.96;50.07
30302;BME280;17111;52.130;5.028;2023-07-22T09:32:03;101361.81;;;22.96;50.21
30302;BME280;17111;52.130;5.028;2023-07-22T09:34:30;101361.97;;;22.95;50.05
30302;BME280;17111;52.130;5.028;2023-07-22T09:36:58;101352.16;;;22.94;50.23
30302;BME280;17111;52.130;5.028;2023-07-22T09:39:29;101353.84;;;22.95;50.16
30302;BME280;17111;52.130;5.028;2023-07-22T09:41:56;101344.91;;;22.94;49.91
30302;BME280;17111;52.130;5.028;2023-07-22T09:44:30;101359.44;;;22.93;49.93
30302;BME280;17111;52.130;5.028;2023-07-22T09:47:06;101348.81;;;22.92;49.51
30302;BME280;17111;52.130;5.028;2023-07-22T09:49:33;101350.66;;;22.91;50.04
30302;BME280;17111;52.130;5.028;2023-07-22T09:52:00;101342.53;;;22.91;49.66
30302;BME280;17111;52.130;5.028;2023-07-22T09:54:28;101346.09;;;22.92;49.75
30302;BME280;17111;52.130;5.028;2023-07-22T09:56:57;101341.53;;;22.92;49.60
30302;BME280;17111;52.130;5.028;2023-07-22T09:59:24;101345.91;;;22.93;49.20
30302;BME280;17111;52.130;5.028;2023-07-22T10:01:51;101335.09;;;22.93;49.34
30302;BME280;17111;52.130;5.028;2023-07-22T10:04:21;101335.09;;;22.93;49.12
30302;BME280;17111;52.130;5.028;2023-07-22T10:06:51;101343.88;;;22.95;49.33
30302;BME280;17111;52.130;5.028;2023-07-22T10:09:20;101346.56;;;22.95;48.56
30302;BME280;17111;52.130;5.028;2023-07-22T10:11:48;101343.03;;;22.95;48.40
30302;BME280;17111;52.130;5.028;2023-07-22T10:14:18;101341.53;;;22.92;48.84
30302;BME280;17111;52.130;5.028;2023-07-22T10:16:45;101343.03;;;22.95;48.93
30302;BME280;17111;52.130;5.028;2023-07-22T10:19:12;101340.34;;;22.95;48.42
30302;BME280;17111;52.130;5.028;2023-07-22T10:21:39;101347.44;;;22.96;48.21
30302;BME280;17111;52.130;5.028;2023-07-22T10:24:06;101354.69;;;22.95;48.49
30302;BME280;17111;52.130;5.028;2023-07-22T10:26:34;101355.72;;;22.94;48.31
30302;BME280;17111;52.130;5.028;2023-07-22T10:29:13;101369.22;;;22.94;48.19
30302;BME280;17111;52.130;5.028;2023-07-22T10:31:41;101360.47;;;22.92;48.19
30302;BME280;17111;52.130;5.028;2023-07-22T10:34:07;101365.88;;;22.92;48.32
30302;BME280;17111;52.130;5.028;2023-07-22T10:36:35;101375.66;;;22.93;47.95
30302;BME280;17111;52.130;5.028;2023-07-22T10:39:03;101394.59;;;22.93;48.23
30302;BME280;17111;52.130;5.028;2023-07-22T10:41:32;101397.94;;;22.95;48.37
30302;BME280;17111;52.130;5.028;2023-07-22T10:43:59;101394.25;;;22.96;48.15
30302;BME280;17111;52.130;5.028;2023-07-22T10:46:56;101393.22;;;22.97;49.18
30302;BME280;17111;52.130;5.028;2023-07-22T10:49:23;101395.75;;;22.99;48.82
30302;BME280;17111;52.130;5.028;2023-07-22T10:51:51;101390.19;;;23.00;48.88
30302;BME280;17111;52.130;5.028;2023-07-22T10:54:35;101389.34;;;23.00;49.04
30302;BME280;17111;52.130;5.028;2023-07-22T10:59:49;101381.88;;;23.02;49.57
30302;BME280;17111;52.130;5.028;2023-07-22T11:02:26;101379.19;;;23.02;49.61
30302;BME280;17111;52.130;5.028;2023-07-22T11:04:57;101382.72;;;23.02;49.48
30302;BME280;17111;52.130;5.028;2023-07-22T11:07:34;101390.00;;;23.02;50.02
30302;BME280;17111;52.130;5.028;2023-07-22T11:10:14;101377.31;;;23.02;50.25
30302;BME280;17111;52.130;5.028;2023-07-22T11:12:43;101374.78;;;23.01;49.62
30302;BME280;17111;52.130;5.028;2023-07-22T11:15:16;101369.38;;;23.01;49.92
30302;BME280;17111;52.130;5.028;2023-07-22T11:17:44;101382.72;;;23.02;50.19
30302;BME280;17111;52.130;5.028;2023-07-22T11:20:11;101374.59;;;23.02;50.41
30302;BME280;17111;52.130;5.028;2023-07-22T11:22:41;101368.19;;;23.03;50.37
30302;BME280;17111;52.130;5.028;2023-07-22T11:25:08;101355.69;;;23.02;50.20
30302;BME280;17111;52.130;5.028;2023-07-22T11:27:35;101354.50;;;23.05;50.67
30302;BME280;17111;52.130;5.028;2023-07-22T11:30:03;101347.03;;;23.07;50.45
30302;BME280;17111;52.130;5.028;2023-07-22T11:32:32;101339.63;;;23.09;50.50
30302;BME280;17111;52.130;5.028;2023-07-22T11:34:58;101334.03;;;23.10;50.41
30302;BME280;17111;52.130;5.028;2023-07-22T11:37:27;101333.69;;;23.13;50.81
30302;BME280;17111;52.130;5.028;2023-07-22T11:39:59;101329.09;;;23.14;50.58
30302;BME280;17111;52.130;5.028;2023-07-22T11:42:26;101337.91;;;23.16;50.49
30302;BME280;17111;52.130;5.028;2023-07-22T11:44:53;101330.63;;;23.17;50.40
30302;BME280;17111;52.130;5.028;2023-07-22T11:47:28;101326.06;;;23.17;50.95
30302;BME280;17111;52.130;5.028;2023-07-22T11:49:55;101327.59;;;23.20;50.27
30302;BME280;17111;52.130;5.028;2023-07-22T11:52:22;101322.81;;;23.22;50.17
30302;BME280;17111;52.130;5.028;2023-07-22T11:54:48;101335.31;;;23.23;50.46
30302;BME280;17111;52.130;5.028;2023-07-22T11:57:17;101335.16;;;23.24;50.30
30302;BME280;17111;52.130;5.028;2023-07-22T11:59:52;101336.84;;;23.25;50.10
30302;BME280;17111;52.130;5.028;2023-07-22T12:02:23;101330.41;;;23.26;50.07
30302;BME280;17111;52.130;5.028;2023-07-22T12:07:25;101337.16;;;23.30;49.51
30302;BME280;17111;52.130;5.028;2023-07-22T12:09:54;101340.69;;;23.31;49.46
30302;BME280;17111;52.130;5.028;2023-07-22T12:12:37;101335.28;;;23.31;49.11
30302;BME280;17111;52.130;5.028;2023-07-22T12:15:18;101334.44;;;23.30;49.19
30302;BME280;17111;52.130;5.028;2023-07-22T12:20:16;101329.72;;;23.32;48.86
30302;BME280;17111;52.130;5.028;2023-07-22T12:22:43;101333.25;;;23.33;48.77
30302;BME280;17111;52.130;5.028;2023-07-22T12:25:10;101328.00;;;23.31;48.17
30302;BME280;17111;52.130;5.028;2023-07-22T12:27:37;101337.00;;;23.32;48.14
30302;BME280;17111;52.130;5.028;2023-07-22T12:30:05;101328.88;;;23.32;47.61
30302;BME280;17111;52.130;5.028;2023-07-22T12:32:33;101319.88;;;23.31;47.69
30302;BME280;17111;52.130;5.028;2023-07-22T12:35:00;101320.75;;;23.32;48.21
30302;BME280;17111;52.130;5.028;2023-07-22T12:37:27;101332.56;;;23.31;48.38
30302;BME280;17111;52.130;5.028;2023-07-22T12:39:55;101338.81;;;23.31;47.37
30302;BME280;17111;52.130;5.028;2023-07-22T12:42:22;101339.69;;;23.32;47.10
30302;BME280;17111;52.130;5.028;2023-07-22T12:44:49;101348.81;;;23.31;47.61
30302;BME280;17111;52.130;5.028;2023-07-22T12:47:15;101333.41;;;23.31;47.26
30302;BME280;17111;52.130;5.028;2023-07-22T12:49:42;101342.41;;;23.32;47.50
30302;BME280;17111;52.130;5.028;2023-07-22T12:52:08;101339.69;;;23.32;46.81
30302;BME280;17111;52.130;5.028;2023-07-22T12:54:36;101348.66;;;23.32;46.78
30302;BME280;17111;52.130;5.028;2023-07-22T12:57:03;101346.09;;;23.31;46.91
30302;BME280;17111;52.130;5.028;2023-07-22T12:59:30;101344.22;;;23.31;46.44
30302;BME280;17111;52.130;5.028;2023-07-22T13:01:57;101343.41;;;23.31;46.44